createdAt,value
2023-03-30T00:02:10.512Z,50.94
2023-03-30T00:04:43.111Z,50.78
2023-03-30T00:07:12.663Z,51.25
2023-03-30T00:09:43.484Z,51.45
2023-03-30T00:12:15.614Z,51.46
2023-03-30T00:14:44.853Z,51.80
2023-03-30T00:17:15.284Z,51.89
2023-03-30T00:19:44.353Z,51.93
2023-03-30T00:22:13.441Z,52.24
2023-03-30T00:24:42.244Z,51.80
2023-03-30T00:27:11.275Z,51.75
2023-03-30T00:29:40.599Z,52.30
2023-03-30T00:32:09.785Z,52.52
2023-03-30T00:34:40.156Z,52.53
2023-03-30T00:37:09.377Z,52.31
2023-03-30T00:45:14.428Z,52.05
2023-03-30T00:47:49.936Z,51.91
2023-03-30T00:50:25.013Z,52.76
2023-03-30T00:52:58.977Z,52.65
2023-03-30T00:55:33.264Z,52.14
2023-03-30T00:58:02.863Z,52.39
2023-03-30T01:00:33.172Z,52.78
2023-03-30T01:03:11.705Z,53.17
2023-03-30T01:05:44.885Z,52.54
2023-03-30T01:08:16.605Z,52.92
2023-03-30T01:10:46.516Z,53.11
2023-03-30T01:13:16.977Z,53.22
2023-03-30T01:16:10.460Z,53.38
2023-03-30T01:18:54.817Z,53.20
2023-03-30T01:22:05.627Z,53.09
2023-03-30T01:25:20.582Z,53.75
2023-03-30T01:28:17.968Z,53.68
2023-03-30T01:31:25.704Z,53.32
2023-03-30T01:34:59.154Z,53.82
2023-03-30T01:38:21.443Z,53.90
2023-03-30T01:41:07.924Z,54.41
2023-03-30T01:43:45.009Z,54.21
2023-03-30T01:46:25.358Z,53.68
2023-03-30T01:49:10.782Z,53.36
2023-03-30T01:51:49.579Z,53.45
2023-03-30T01:54:26.650Z,53.82
2023-03-30T01:57:06.462Z,53.43
2023-03-30T01:59:42.628Z,54.05
2023-03-30T02:02:15.008Z,54.33
2023-03-30T02:04:46.390Z,54.42
2023-03-30T02:07:22.539Z,53.91
2023-03-30T02:09:55.110Z,54.49
2023-03-30T02:12:30.504Z,54.77
2023-03-30T02:15:04.755Z,54.70
2023-03-30T02:17:35.794Z,54.85
2023-03-30T02:20:08.994Z,54.89
2023-03-30T02:22:39.542Z,54.57
2023-03-30T02:25:09.477Z,54.24
2023-03-30T02:27:42.322Z,54.63
2023-03-30T02:30:12.393Z,54.50
2023-03-30T02:32:48.282Z,55.03
2023-03-30T02:35:51.879Z,54.21
2023-03-30T02:38:52.806Z,54.50
2023-03-30T02:41:48.844Z,55.08
2023-03-30T02:44:33.721Z,54.66
2023-03-30T02:47:13.497Z,54.78
2023-03-30T02:49:58.725Z,54.76
2023-03-30T02:52:49.990Z,55.32
2023-03-30T02:55:24.559Z,55.14
2023-03-30T02:58:29.738Z,55.07
2023-03-30T03:01:24.369Z,54.97
2023-03-30T03:04:03.508Z,54.89
2023-03-30T03:06:42.497Z,55.34
2023-03-30T03:09:11.460Z,54.90
2023-03-30T03:11:40.786Z,55.07
2023-03-30T03:14:09.607Z,55.09
2023-03-30T03:16:40.088Z,54.81
2023-03-30T03:19:16.069Z,55.01
2023-03-30T03:21:46.669Z,55.45
2023-03-30T03:24:17.482Z,55.63
2023-03-30T03:27:05.508Z,55.60
2023-03-30T03:29:44.898Z,55.12
2023-03-30T03:32:15.528Z,55.55
2023-03-30T03:34:48.480Z,55.53
2023-03-30T03:41:50.964Z,56.08
2023-03-30T03:44:19.940Z,56.06
2023-03-30T03:46:49.142Z,55.68
2023-03-30T03:49:19.379Z,55.99
2023-03-30T03:51:48.375Z,56.35
2023-03-30T03:54:17.233Z,56.19
2023-03-30T03:56:49.421Z,56.27
2023-03-30T03:59:18.196Z,56.50
2023-03-30T04:01:50.143Z,56.39
2023-03-30T04:04:20.401Z,56.43
2023-03-30T04:06:49.730Z,56.35
2023-03-30T04:09:19.320Z,56.83
2023-03-30T04:12:07.422Z,56.67
2023-03-30T04:15:06.129Z,56.73
2023-03-30T04:17:57.880Z,57.06
2023-03-30T04:20:43.945Z,57.15
2023-03-30T04:23:33.805Z,57.49
2023-03-30T04:26:35.542Z,57.20
2023-03-30T04:29:06.609Z,57.28
2023-03-30T04:32:20.637Z,56.76
2023-03-30T04:35:05.693Z,56.83
2023-03-30T04:38:06.226Z,56.80
2023-03-30T04:40:46.918Z,56.87
2023-03-30T04:43:27.258Z,57.45
2023-03-30T04:46:28.706Z,56.78
2023-03-30T04:49:35.794Z,56.98
2023-03-30T04:52:27.937Z,57.22
2023-03-30T04:55:16.470Z,57.12
2023-03-30T04:58:03.931Z,57.26
2023-03-30T05:00:44.574Z,57.52
2023-03-30T05:03:31.571Z,57.00
2023-03-30T05:06:09.824Z,57.08
2023-03-30T05:08:58.459Z,56.97
2023-03-30T05:11:51.518Z,56.43
2023-03-30T05:14:43.881Z,56.64
2023-03-30T05:17:34.793Z,56.64
2023-03-30T05:20:25.699Z,57.14
2023-03-30T05:23:06.862Z,56.94
2023-03-30T05:25:55.597Z,57.20
2023-03-30T05:28:44.388Z,56.96
2023-03-30T05:31:36.849Z,57.02
2023-03-30T05:34:36.506Z,56.52
2023-03-30T05:37:16.399Z,56.71
2023-03-30T05:40:09.541Z,57.38
2023-03-30T05:42:46.249Z,57.00
2023-03-30T05:45:33.498Z,57.09
2023-03-30T05:48:26.060Z,56.93
2023-03-30T05:51:20.913Z,57.78
2023-03-30T05:54:18.073Z,57.34
2023-03-30T05:57:04.214Z,56.95
2023-03-30T05:59:42.082Z,56.38
2023-03-30T06:02:29.934Z,56.46
2023-03-30T06:05:06.156Z,56.97
2023-03-30T06:07:35.129Z,56.27
2023-03-30T06:10:04.682Z,56.46
2023-03-30T06:12:33.636Z,56.21
2023-03-30T06:15:03.522Z,56.36
2023-03-30T06:17:43.173Z,56.77
2023-03-30T06:20:13.734Z,55.99
2023-03-30T06:22:46.449Z,56.36
2023-03-30T06:25:21.186Z,55.75
2023-03-30T06:27:50.134Z,56.11
2023-03-30T06:30:19.978Z,55.82
2023-03-30T06:32:54.642Z,55.48
2023-03-30T06:35:27.534Z,55.31
2023-03-30T06:42:29.604Z,55.00
2023-03-30T06:45:13.189Z,54.86
2023-03-30T06:47:42.510Z,54.55
2023-03-30T06:50:14.566Z,55.30
2023-03-30T06:52:46.297Z,55.42
2023-03-30T06:55:17.021Z,55.07
2023-03-30T06:57:45.777Z,55.44
2023-03-30T07:00:16.395Z,55.46
2023-03-30T07:03:04.203Z,55.31
2023-03-30T07:05:42.673Z,55.76
2023-03-30T07:08:38.089Z,55.81
2023-03-30T07:11:08.489Z,55.68
2023-03-30T07:13:40.808Z,55.53
2023-03-30T07:16:11.292Z,54.92
2023-03-30T07:18:40.247Z,54.74
2023-03-30T07:21:10.854Z,55.05
2023-03-30T07:23:43.404Z,54.92
2023-03-30T07:26:18.118Z,54.89
2023-03-30T07:29:00.784Z,54.25
2023-03-30T07:31:32.150Z,54.47
2023-03-30T07:34:04.339Z,53.61
2023-03-30T07:36:40.220Z,53.81
2023-03-30T07:39:09.216Z,53.13
2023-03-30T07:41:41.344Z,53.38
2023-03-30T07:44:10.363Z,53.86
2023-03-30T07:46:39.564Z,54.09
2023-03-30T07:49:10.744Z,54.08
2023-03-30T07:51:43.138Z,54.52
2023-03-30T07:54:21.931Z,54.53
2023-03-30T07:57:18.344Z,54.38
2023-03-30T07:59:47.324Z,54.06
2023-03-30T08:02:35.608Z,53.65
2023-03-30T08:05:05.315Z,53.58
2023-03-30T08:08:01.211Z,52.69
2023-03-30T08:10:34.848Z,53.42
2023-03-30T08:17:37.881Z,54.31
2023-03-30T08:20:10.906Z,53.83
2023-03-30T08:22:40.066Z,53.95
2023-03-30T08:25:11.925Z,54.76
2023-03-30T08:27:40.974Z,54.79
2023-03-30T08:30:13.183Z,54.86
2023-03-30T08:32:42.352Z,55.01
2023-03-30T08:35:11.644Z,55.17
2023-03-30T08:37:41.038Z,54.87
2023-03-30T08:40:13.314Z,55.45
2023-03-30T08:43:04.791Z,54.99
2023-03-30T08:45:41.014Z,54.76
2023-03-30T08:48:19.853Z,54.88
2023-03-30T08:50:57.781Z,54.80
2023-03-30T08:53:29.616Z,54.51
2023-03-30T08:56:10.538Z,54.37
2023-03-30T08:58:53.954Z,54.70
2023-03-30T09:01:30.261Z,54.64
2023-03-30T09:04:24.762Z,55.17
2023-03-30T09:06:57.424Z,55.63
2023-03-30T09:09:31.166Z,54.98
2023-03-30T09:12:07.770Z,55.45
2023-03-30T09:14:42.869Z,55.10
2023-03-30T09:17:21.224Z,55.17
2023-03-30T09:19:57.281Z,54.89
2023-03-30T09:22:35.874Z,54.82
2023-03-30T09:25:13.218Z,54.04
2023-03-30T09:27:58.755Z,54.45
2023-03-30T09:30:38.671Z,54.71
2023-03-30T09:33:22.077Z,54.94
2023-03-30T09:36:09.226Z,55.30
2023-03-30T09:38:41.830Z,55.29
2023-03-30T09:41:33.016Z,55.36
2023-03-30T09:44:04.301Z,54.80
2023-03-30T09:46:40.544Z,54.91
2023-03-30T09:49:18.166Z,53.87
2023-03-30T09:52:06.673Z,53.66
2023-03-30T09:54:40.081Z,52.69
2023-03-30T09:57:27.212Z,52.30
2023-03-30T09:59:59.851Z,52.54
2023-03-30T10:02:31.584Z,51.76
2023-03-30T10:05:04.796Z,52.11
2023-03-30T10:12:06.520Z,51.99
2023-03-30T10:14:37.143Z,51.42
2023-03-30T10:17:09.088Z,51.37
2023-03-30T10:19:48.109Z,51.01
2023-03-30T10:22:23.348Z,49.26
2023-03-30T10:24:55.246Z,48.30
2023-03-30T10:27:34.641Z,47.79
2023-03-30T10:30:12.894Z,48.85
2023-03-30T10:32:47.286Z,48.86
2023-03-30T10:35:22.788Z,49.21
2023-03-30T10:37:55.852Z,49.28
2023-03-30T10:40:32.676Z,48.80
2023-03-30T10:43:04.328Z,48.12
2023-03-30T10:45:41.773Z,47.63
2023-03-30T10:48:43.295Z,47.17
2023-03-30T10:51:23.223Z,48.16
2023-03-30T10:54:04.433Z,47.71
2023-03-30T10:56:43.917Z,48.13
2023-03-30T10:59:44.818Z,47.13
2023-03-30T11:02:48.876Z,46.23
2023-03-30T11:05:25.942Z,45.74
2023-03-30T11:08:01.939Z,44.86
2023-03-30T11:10:34.621Z,45.24
2023-03-30T11:13:08.349Z,46.34
2023-03-30T11:15:44.416Z,46.69
2023-03-30T11:18:21.422Z,46.91
2023-03-30T11:21:01.509Z,47.81
2023-03-30T11:23:45.846Z,47.44
2023-03-30T11:26:24.074Z,47.99
2023-03-30T11:29:24.253Z,47.24
2023-03-30T11:32:12.449Z,47.78
2023-03-30T11:34:56.173Z,47.25
2023-03-30T11:37:33.890Z,47.96
2023-03-30T11:40:17.365Z,46.83
2023-03-30T11:42:48.573Z,46.98
2023-03-30T11:45:34.479Z,45.71
2023-03-30T11:48:42.839Z,45.44
2023-03-30T11:51:29.622Z,45.94
2023-03-30T11:54:39.680Z,46.35
2023-03-30T11:57:18.986Z,46.42
2023-03-30T12:00:08.274Z,45.91
2023-03-30T12:02:51.282Z,46.05
2023-03-30T12:05:31.401Z,44.97
2023-03-30T12:08:30.125Z,44.26
2023-03-30T12:11:13.675Z,43.73
2023-03-30T12:13:51.263Z,44.31
2023-03-30T12:16:31.894Z,44.70
2023-03-30T12:19:14.825Z,45.32
2023-03-30T12:21:56.193Z,45.36
2023-03-30T12:24:34.711Z,45.81
2023-03-30T12:27:07.055Z,45.93
2023-03-30T12:30:02.305Z,46.37
2023-03-30T12:32:35.932Z,46.16
2023-03-30T12:35:51.908Z,45.72
2023-03-30T12:38:25.563Z,46.89
2023-03-30T12:41:15.404Z,46.88
2023-03-30T12:44:18.934Z,47.38
2023-03-30T12:47:06.877Z,47.03
2023-03-30T12:49:59.299Z,47.46
2023-03-30T12:52:43.619Z,47.53
2023-03-30T13:00:31.714Z,48.49
2023-03-30T13:03:38.420Z,48.82
2023-03-30T13:06:24.945Z,48.57
2023-03-30T13:09:05.198Z,49.03
2023-03-30T13:11:46.688Z,49.35
2023-03-30T13:14:27.418Z,49.51
2023-03-30T13:17:17.231Z,49.58
2023-03-30T13:20:12.692Z,49.90
2023-03-30T13:23:28.202Z,50.08
2023-03-30T13:26:34.297Z,51.00
2023-03-30T13:29:11.471Z,50.90
2023-03-30T13:32:19.495Z,51.24
2023-03-30T13:35:17.666Z,51.24
2023-03-30T13:38:17.082Z,51.97
2023-03-30T13:41:04.529Z,52.27
2023-03-30T13:43:57.526Z,51.97
2023-03-30T13:46:36.859Z,52.02
2023-03-30T13:49:32.333Z,52.21
2023-03-30T13:52:07.527Z,51.90
2023-03-30T13:54:40.994Z,52.59
2023-03-30T13:57:14.098Z,52.42
2023-03-30T13:59:48.216Z,52.39
2023-03-30T14:02:20.957Z,52.86
2023-03-30T14:04:51.423Z,52.94
2023-03-30T14:07:24.227Z,53.52
2023-03-30T14:10:08.574Z,53.39
2023-03-30T14:12:41.249Z,53.12
2023-03-30T14:15:24.618Z,53.52
2023-03-30T14:17:58.142Z,52.72
2023-03-30T14:20:47.519Z,52.43
2023-03-30T14:27:48.334Z,53.01
2023-03-30T14:30:29.566Z,53.10
2023-03-30T14:37:32.895Z,53.20
2023-03-30T14:44:38.859Z,53.46
2023-03-30T14:51:42.316Z,53.51
2023-03-30T14:54:18.893Z,54.83
2023-03-30T14:56:57.705Z,54.84
2023-03-30T14:59:28.425Z,56.74
2023-03-30T15:01:58.530Z,59.25
2023-03-30T15:04:35.654Z,60.17
2023-03-30T15:07:05.620Z,62.24
2023-03-30T15:09:40.144Z,61.44
2023-03-30T15:12:16.840Z,63.13
2023-03-30T15:14:48.869Z,63.61
2023-03-30T15:17:23.929Z,66.57
2023-03-30T15:19:55.422Z,66.98
2023-03-30T15:22:30.046Z,66.95
2023-03-30T15:29:32.690Z,69.32
2023-03-30T15:32:08.167Z,71.39
2023-03-30T15:34:37.437Z,73.70
2023-03-30T15:41:48.444Z,76.08
2023-03-30T15:44:20.671Z,78.12
2023-03-30T15:51:30.617Z,79.18
2023-03-30T15:54:04.410Z,78.81
2023-03-30T15:56:39.957Z,78.73
2023-03-30T15:59:16.600Z,78.32
2023-03-30T16:01:52.528Z,77.25
2023-03-30T16:04:25.026Z,76.04
2023-03-30T16:06:56.255Z,76.09
2023-03-30T16:09:25.258Z,76.42
2023-03-30T16:11:54.345Z,75.60
2023-03-30T16:14:23.108Z,74.84
2023-03-30T16:16:52.156Z,73.89
2023-03-30T16:19:21.007Z,73.21
2023-03-30T16:21:53.213Z,72.17
2023-03-30T16:24:23.518Z,71.79
2023-03-30T16:26:52.522Z,71.94
2023-03-30T16:29:24.506Z,71.30
2023-03-30T16:31:54.468Z,70.59
2023-03-30T16:34:23.379Z,69.89
2023-03-30T16:36:53.705Z,69.94
2023-03-30T16:39:26.520Z,70.36
2023-03-30T16:41:57.207Z,69.87
2023-03-30T16:44:26.896Z,70.26
2023-03-30T16:46:55.911Z,69.93
2023-03-30T16:49:27.145Z,70.00
2023-03-30T16:51:58.236Z,69.26
2023-03-30T16:54:32.446Z,69.60
2023-03-30T16:57:02.751Z,69.64
2023-03-30T16:59:34.154Z,69.46
2023-03-30T17:02:03.496Z,69.46
2023-03-30T17:04:32.206Z,69.43
2023-03-30T17:07:01.418Z,70.16
2023-03-30T17:09:31.561Z,69.83
2023-03-30T17:12:00.675Z,69.89
2023-03-30T17:14:30.221Z,69.75
2023-03-30T17:16:59.418Z,69.03
2023-03-30T17:24:00.582Z,69.35
2023-03-30T17:26:30.873Z,69.47
2023-03-30T17:28:59.951Z,69.23
2023-03-30T17:31:28.771Z,69.61
2023-03-30T17:33:57.886Z,70.08
2023-03-30T17:36:29.267Z,69.96
2023-03-30T17:38:59.834Z,69.97
2023-03-30T17:41:30.076Z,70.10
2023-03-30T17:43:59.071Z,70.02
2023-03-30T17:46:28.272Z,69.54
2023-03-30T17:48:58.794Z,69.64
2023-03-30T17:51:27.643Z,69.54
2023-03-30T17:53:56.644Z,69.32
2023-03-30T17:56:25.838Z,69.76
2023-03-30T17:58:56.271Z,70.06
2023-03-30T18:01:25.093Z,69.85
2023-03-30T18:03:54.190Z,69.55
2023-03-30T18:06:22.992Z,69.89
2023-03-30T18:08:52.115Z,71.66
2023-03-30T18:11:21.068Z,74.23
2023-03-30T18:13:51.904Z,76.49
2023-03-30T18:16:24.443Z,76.99
2023-03-30T18:18:53.504Z,78.05
2023-03-30T18:21:22.235Z,78.92
2023-03-30T18:23:51.290Z,79.50
2023-03-30T18:26:19.997Z,79.45
2023-03-30T18:28:48.997Z,80.58
2023-03-30T18:31:17.857Z,80.51
2023-03-30T18:33:49.431Z,81.19
2023-03-30T18:36:21.255Z,80.70
2023-03-30T18:38:50.391Z,80.58
2023-03-30T18:41:19.146Z,79.97
2023-03-30T18:48:22.486Z,84.14
2023-03-30T18:50:54.386Z,85.88
2023-03-30T18:53:25.747Z,86.93
2023-03-30T18:55:58.629Z,87.83
2023-03-30T19:02:59.246Z,89.49
2023-03-30T19:05:30.696Z,90.13
2023-03-30T19:08:01.358Z,90.03
2023-03-30T19:10:34.464Z,91.04
2023-03-30T19:13:03.552Z,90.88
2023-03-30T19:15:34.757Z,90.07
2023-03-30T19:18:05.633Z,89.75
2023-03-30T19:20:37.860Z,89.66
2023-03-30T19:23:09.298Z,89.33
2023-03-30T19:25:38.230Z,89.51
2023-03-30T19:28:08.400Z,90.05
2023-03-30T19:30:40.072Z,89.62
2023-03-30T19:33:13.212Z,89.57
2023-03-30T19:35:43.359Z,89.07
2023-03-30T19:38:14.005Z,89.10
2023-03-30T19:40:43.471Z,88.54
2023-03-30T19:43:12.609Z,87.78
2023-03-30T19:45:41.351Z,88.44
2023-03-30T19:48:10.826Z,89.50
2023-03-30T19:50:40.749Z,89.87
2023-03-30T19:53:10.412Z,90.23
2023-03-30T19:55:40.668Z,90.57
2023-03-30T19:58:12.693Z,90.69
2023-03-30T20:00:43.560Z,90.72
2023-03-30T20:03:14.661Z,91.17
2023-03-30T20:05:50.939Z,91.13
2023-03-30T20:08:24.171Z,91.60
2023-03-30T20:10:56.551Z,92.22
2023-03-30T20:13:27.381Z,92.79
2023-03-30T20:15:57.073Z,93.35
2023-03-30T20:18:26.325Z,94.54
2023-03-30T20:20:55.070Z,95.19
2023-03-30T20:23:24.236Z,95.53
2023-03-30T20:25:56.823Z,95.81
2023-03-30T20:28:25.899Z,96.22
2023-03-30T20:30:57.083Z,96.77
2023-03-30T20:33:28.105Z,97.48
2023-03-30T20:35:58.372Z,98.01
2023-03-30T20:38:27.559Z,98.46
2023-03-30T20:40:59.344Z,99.34
2023-03-30T20:43:28.403Z,100.00
2023-03-30T20:46:02.666Z,100.00
2023-03-30T20:48:33.543Z,100.00
2023-03-30T20:51:03.928Z,100.00
2023-03-30T20:53:34.889Z,100.00
2023-03-30T20:56:09.357Z,100.00
2023-03-30T20:58:39.666Z,100.00
2023-03-30T21:01:19.219Z,100.00
2023-03-30T21:03:50.134Z,100.00
2023-03-30T21:06:23.642Z,100.00
2023-03-30T21:08:54.509Z,100.00
2023-03-30T21:11:27.266Z,100.00
2023-03-30T21:13:56.922Z,100.00
2023-03-30T21:16:26.957Z,100.00
2023-03-30T21:18:56.362Z,100.00
2023-03-30T21:21:25.900Z,100.00
2023-03-30T21:23:54.969Z,100.00
2023-03-30T21:26:26.455Z,100.00
2023-03-30T21:28:55.708Z,100.00
2023-03-30T21:31:25.580Z,100.00
2023-03-30T21:33:54.905Z,100.00
2023-03-30T21:36:24.263Z,100.00
2023-03-30T21:38:53.322Z,100.00
2023-03-30T21:41:24.511Z,100.00
2023-03-30T21:43:55.787Z,100.00
2023-03-30T21:46:27.269Z,100.00
2023-03-30T21:48:56.801Z,100.00
2023-03-30T21:51:28.965Z,100.00
2023-03-30T21:54:00.115Z,100.00
2023-03-30T21:56:31.988Z,100.00
2023-03-30T21:59:02.643Z,100.00
2023-03-30T22:01:31.479Z,100.00
2023-03-30T22:04:01.692Z,100.00
2023-03-30T22:06:32.905Z,100.00
2023-03-30T22:09:02.086Z,100.00
2023-03-30T22:11:31.388Z,100.00
2023-03-30T22:14:02.194Z,100.00
2023-03-30T22:21:07.968Z,100.00
2023-03-30T22:23:36.955Z,100.00
2023-03-30T22:26:06.805Z,100.00
2023-03-30T22:28:35.906Z,100.00
2023-03-30T22:31:08.936Z,100.00
2023-03-30T22:33:37.761Z,100.00
2023-03-30T22:36:17.359Z,100.00
2023-03-30T22:38:46.504Z,100.00
2023-03-30T22:41:15.712Z,100.00
2023-03-30T22:43:44.463Z,100.00
2023-03-30T22:46:14.930Z,100.00
2023-03-30T22:48:44.012Z,100.00
2023-03-30T22:51:14.601Z,100.00
2023-03-30T22:53:43.366Z,100.00
2023-03-30T22:56:12.994Z,100.00
2023-03-30T22:58:41.789Z,100.00
2023-03-30T23:01:12.322Z,100.00
2023-03-30T23:03:43.051Z,100.00
2023-03-30T23:06:12.127Z,100.00
2023-03-30T23:08:40.877Z,100.00
2023-03-30T23:11:09.865Z,100.00
2023-03-30T23:13:42.086Z,100.00
2023-03-30T23:16:11.569Z,100.00
2023-03-30T23:18:42.295Z,100.00
2023-03-30T23:21:14.130Z,100.00
2023-03-30T23:23:43.395Z,100.00
2023-03-30T23:26:13.168Z,100.00
2023-03-30T23:28:43.529Z,100.00
2023-03-30T23:31:14.692Z,100.00
2023-03-30T23:33:45.591Z,100.00
2023-03-30T23:36:17.308Z,100.00
2023-03-30T23:38:47.517Z,100.00
2023-03-30T23:41:18.844Z,100.00
2023-03-30T23:43:48.218Z,100.00
2023-03-30T23:46:17.824Z,100.00
2023-03-30T23:48:47.982Z,100.00
2023-03-30T23:51:17.067Z,100.00
2023-03-30T23:53:47.309Z,100.00
2023-03-30T23:56:17.204Z,100.00
2023-03-30T23:58:46.397Z,100.00
